Time;durP1;ratioP1;P1;durP2;ratioP2;P2;SDS_P1;SDS_P2;PMS_P1;PMS_P2;Temp;Humidity;BMP_temperature;BMP_pressure;BME280_temperature;BME280_humidity;BME280_pressure;Samples;Min_cycle;Max_cycle;Signal;HPM_P1;HPM_P2
2023/02/10 00:01:35;;;;;;;26.40;13.20;;;;;;;-8.33;100.00;101385.56;108045;1269;23333;-63
2023/02/10 00:04:03;;;;;;;25.60;13.40;;;;;;;-8.32;100.00;101388.85;110326;1275;22364;-63
2023/02/10 00:06:31;;;;;;;22.40;11.50;;;;;;;-8.34;100.00;101384.10;110342;1274;22397;-63
2023/02/10 00:09:00;;;;;;;25.50;12.80;;;;;;;-8.37;100.00;101383.58;110378;1275;22826;-63
2023/02/10 00:14:16;;;;;;;25.10;12.50;;;;;;;-8.36;100.00;101382.41;110354;1275;23318;-63
2023/02/10 00:16:44;;;;;;;24.30;11.90;;;;;;;-8.35;100.00;101380.95;110355;1275;23184;-63
2023/02/10 00:19:13;;;;;;;24.80;12.70;;;;;;;-8.33;100.00;101376.10;110395;1275;22964;-63
2023/02/10 00:21:41;;;;;;;22.60;12.30;;;;;;;-8.31;100.00;101376.63;110252;1270;22408;-63
2023/02/10 00:24:09;;;;;;;22.60;11.70;;;;;;;-8.34;100.00;101369.80;108478;1275;23322;-62
2023/02/10 00:26:37;;;;;;;23.20;11.70;;;;;;;-8.35;100.00;101366.38;107112;1270;26147;-62
2023/02/10 00:29:06;;;;;;;22.70;12.20;;;;;;;-8.38;100.00;101361.44;107219;1274;23778;-62
2023/02/10 00:31:35;;;;;;;21.40;11.50;;;;;;;-8.38;100.00;101361.99;106719;1271;22760;-62
2023/02/10 00:34:03;;;;;;;24.30;11.60;;;;;;;-8.39;100.00;101360.98;106935;1273;23652;-62
2023/02/10 00:36:31;;;;;;;27.60;12.30;;;;;;;-8.38;100.00;101362.04;106655;1270;22619;-62
2023/02/10 00:38:59;;;;;;;19.90;10.80;;;;;;;-8.39;100.00;101363.98;106795;1273;22540;-62
2023/02/10 00:41:28;;;;;;;23.30;12.30;;;;;;;-8.38;100.00;101359.86;106772;1273;23422;-62
2023/02/10 00:43:56;;;;;;;24.50;12.50;;;;;;;-8.36;100.00;101357.97;107123;1267;24363;-62
2023/02/10 00:46:25;;;;;;;21.80;11.60;;;;;;;-8.34;100.00;101351.16;106758;1274;27987;-62
2023/02/10 00:48:53;;;;;;;24.20;12.30;;;;;;;-8.31;100.00;101344.77;106705;1275;26140;-61
2023/02/10 00:51:22;;;;;;;23.50;11.90;;;;;;;-8.31;100.00;101337.16;106642;1270;25379;-62
2023/02/10 00:53:52;;;;;;;21.10;11.40;;;;;;;-8.31;100.00;101335.44;106660;1273;26481;-62
2023/02/10 00:56:20;;;;;;;25.10;11.60;;;;;;;-8.32;100.00;101335.44;106636;1268;25229;-62
2023/02/10 00:58:48;;;;;;;22.90;11.90;;;;;;;-8.33;100.00;101336.26;106703;1272;23809;-62
2023/02/10 01:01:16;;;;;;;23.40;11.30;;;;;;;-8.34;100.00;101332.98;106654;1268;23244;-62
2023/02/10 01:03:44;;;;;;;23.10;11.70;;;;;;;-8.35;100.00;101332.70;110231;1272;23119;-63
2023/02/10 01:06:14;;;;;;;27.40;12.50;;;;;;;-8.36;100.00;101327.73;110336;1274;22393;-63
2023/02/10 01:08:42;;;;;;;22.40;11.70;;;;;;;-8.38;100.00;101321.88;110297;1275;22219;-62
2023/02/10 01:11:11;;;;;;;25.10;12.40;;;;;;;-8.37;100.00;101314.73;110259;1274;22454;-63
2023/02/10 01:13:40;;;;;;;24.00;12.50;;;;;;;-8.34;100.00;101311.35;110351;1271;22384;-62
2023/02/10 01:16:13;;;;;;;25.10;12.40;;;;;;;-8.33;100.00;101316.34;110334;1275;22405;-63
2023/02/10 01:18:41;;;;;;;22.60;12.20;;;;;;;-8.30;100.00;101319.65;110362;1275;22268;-62
2023/02/10 01:21:14;;;;;;;21.80;11.60;;;;;;;-8.27;100.00;101317.66;110408;1275;22452;-63
2023/02/10 01:23:44;;;;;;;23.60;12.20;;;;;;;-8.24;100.00;101314.77;110431;1276;22470;-62
2023/02/10 01:26:12;;;;;;;23.80;12.60;;;;;;;-8.20;100.00;101315.20;110388;1275;23108;-63
2023/02/10 01:28:40;;;;;;;24.80;12.00;;;;;;;-8.15;100.00;101311.49;110461;1274;22615;-63
2023/02/10 01:31:11;;;;;;;23.60;11.90;;;;;;;-8.12;100.00;101311.96;108693;1275;23796;-62
2023/02/10 01:33:41;;;;;;;27.00;12.70;;;;;;;-8.12;100.00;101308.92;106659;1276;25340;-62
2023/02/10 01:36:14;;;;;;;26.10;13.10;;;;;;;-8.12;100.00;101312.09;108071;1275;22784;-62
2023/02/10 01:38:43;;;;;;;23.40;11.80;;;;;;;-8.13;100.00;101312.16;110196;1275;23221;-63
2023/02/10 01:41:13;;;;;;;24.50;12.40;;;;;;;-8.12;100.00;101306.66;110454;1275;22757;-63
2023/02/10 01:43:55;;;;;;;24.30;12.50;;;;;;;-8.11;100.00;101301.42;110252;1276;22252;-63
2023/02/10 01:46:24;;;;;;;23.10;12.00;;;;;;;-8.08;100.00;101298.23;110357;1274;23070;-63
2023/02/10 01:48:52;;;;;;;23.10;12.00;;;;;;;-8.04;100.00;101294.98;110273;1274;22903;-62
2023/02/10 01:51:23;;;;;;;28.10;14.20;;;;;;;-8.00;100.00;101293.05;110171;1274;22705;-62
2023/02/10 01:53:52;;;;;;;27.90;13.20;;;;;;;-7.94;100.00;101291.73;110310;1274;22395;-62
2023/02/10 01:56:20;;;;;;;23.10;12.20;;;;;;;-7.89;100.00;101292.02;110311;1274;22226;-63
2023/02/10 01:58:48;;;;;;;26.10;13.10;;;;;;;-7.86;100.00;101292.35;110221;1271;22338;-63
2023/02/10 02:01:17;;;;;;;24.00;12.90;;;;;;;-7.85;100.00;101293.65;110316;1275;23198;-63
2023/02/10 02:03:46;;;;;;;25.30;12.30;;;;;;;-7.82;100.00;101293.83;110287;1274;22302;-63
2023/02/10 02:06:14;;;;;;;24.50;12.90;;;;;;;-7.79;100.00;101290.91;110165;1273;22407;-62
2023/02/10 02:08:43;;;;;;;27.10;13.40;;;;;;;-7.73;100.00;101287.84;110336;1274;22382;-63
2023/02/10 02:11:40;;;;;;;26.40;12.40;;;;;;;-7.68;100.00;101289.58;110358;1274;22759;-63
2023/02/10 02:14:10;;;;;;;26.80;12.60;;;;;;;-7.63;100.00;101290.91;110300;1274;22509;-63
2023/02/10 02:16:38;;;;;;;25.50;13.00;;;;;;;-7.59;100.00;101294.27;110298;1275;23235;-63
2023/02/10 02:19:32;;;;;;;26.00;13.00;;;;;;;-7.57;100.00;101296.40;110359;1274;22199;-63
2023/02/10 02:22:04;;;;;;;25.20;12.80;;;;;;;-7.59;100.00;101292.58;109567;1275;24745;-62
2023/02/10 02:24:46;;;;;;;30.20;15.10;;;;;;;-7.64;100.00;101292.55;106818;1270;22695;-62
2023/02/10 02:27:43;;;;;;;25.20;13.30;;;;;;;-7.67;100.00;101290.88;106750;1273;25383;-62
2023/02/10 02:30:14;;;;;;;25.20;13.00;;;;;;;-7.76;100.00;101289.13;106622;1270;23183;-63
2023/02/10 02:32:44;;;;;;;26.70;13.60;;;;;;;-7.85;100.00;101286.65;106697;1269;26277;-62
2023/02/10 02:35:15;;;;;;;29.10;14.30;;;;;;;-7.88;100.00;101287.73;106797;1270;25379;-62
2023/02/10 02:37:44;;;;;;;26.60;13.30;;;;;;;-7.85;100.00;101286.27;106693;1270;23319;-62
2023/02/10 02:40:13;;;;;;;26.20;13.00;;;;;;;-7.83;100.00;101291.03;110129;1274;23012;-62
2023/02/10 02:42:42;;;;;;;29.30;13.30;;;;;;;-7.79;100.00;101292.65;110370;1274;22540;-63
2023/02/10 02:45:14;;;;;;;25.30;13.20;;;;;;;-7.73;100.00;101289.77;110282;1274;22333;-63
2023/02/10 02:48:01;;;;;;;26.70;13.40;;;;;;;-7.67;100.00;101290.52;110369;1271;22441;-63
2023/02/10 02:50:55;;;;;;;25.70;12.60;;;;;;;-7.60;100.00;101289.28;110206;1275;22314;-62
2023/02/10 02:53:39;;;;;;;28.60;13.10;;;;;;;-7.52;100.00;101287.61;110220;1275;23151;-63
2023/02/10 02:56:29;;;;;;;25.40;13.50;;;;;;;-7.44;100.00;101284.49;110105;1274;22332;-63
2023/02/10 02:59:09;;;;;;;24.10;12.30;;;;;;;-7.34;100.00;101273.17;110015;1275;22587;-62
2023/02/10 03:01:44;;;;;;;25.50;13.40;;;;;;;-7.27;100.00;101275.20;106669;1270;25136;-62
2023/02/10 03:04:13;;;;;;;28.20;14.40;;;;;;;-7.23;100.00;101275.13;107757;1274;25458;-62
2023/02/10 03:06:41;;;;;;;27.20;14.30;;;;;;;-7.24;100.00;101276.05;106935;1270;22978;-62
2023/02/10 03:09:10;;;;;;;27.10;14.20;;;;;;;-7.25;100.00;101274.70;107082;1270;25436;-62
2023/02/10 03:11:38;;;;;;;25.80;14.00;;;;;;;-7.26;100.00;101274.27;107391;1274;25359;-62
2023/02/10 03:14:07;;;;;;;27.50;14.00;;;;;;;-7.32;100.00;101266.24;106878;1269;25327;-62
2023/02/10 03:16:36;;;;;;;28.80;14.80;;;;;;;-7.37;100.00;101261.24;106928;1273;22513;-62
2023/02/10 03:19:07;;;;;;;29.40;15.00;;;;;;;-7.42;100.00;101259.70;106731;1276;22558;-62
2023/02/10 03:21:37;;;;;;;29.60;14.50;;;;;;;-7.41;100.00;101259.91;106687;1275;26481;-62
2023/02/10 03:24:05;;;;;;;30.70;14.70;;;;;;;-7.36;100.00;101257.10;106714;1276;25381;-62
2023/02/10 03:26:33;;;;;;;28.80;14.70;;;;;;;-7.32;100.00;101258.00;107029;1275;22951;-62
2023/02/10 03:29:03;;;;;;;26.60;13.30;;;;;;;-7.27;100.00;101255.66;107234;1270;25340;-62
2023/02/10 03:31:32;;;;;;;28.70;13.60;;;;;;;-7.22;100.00;101253.33;106802;1276;24216;-62
2023/02/10 03:34:00;;;;;;;26.80;14.10;;;;;;;-7.18;100.00;101247.84;106761;1276;25530;-61
2023/02/10 03:36:28;;;;;;;27.90;13.40;;;;;;;-7.11;100.00;101240.98;106738;1274;22527;-62
2023/02/10 03:38:57;;;;;;;26.50;14.80;;;;;;;-7.05;100.00;101234.48;110410;1274;22872;-63
2023/02/10 03:41:25;;;;;;;25.90;14.30;;;;;;;-6.98;100.00;101229.66;110417;1275;22359;-63
2023/02/10 03:43:53;;;;;;;28.20;14.20;;;;;;;-6.90;100.00;101224.45;110454;1275;22194;-63
2023/02/10 03:46:21;;;;;;;25.60;14.40;;;;;;;-6.88;100.00;101222.30;110398;1275;22419;-62
2023/02/10 03:48:52;;;;;;;24.70;13.80;;;;;;;-6.90;100.00;101220.23;110383;1274;22481;-63
2023/02/10 03:51:21;;;;;;;26.60;14.10;;;;;;;-6.94;100.00;101225.27;110293;1274;23588;-63
2023/02/10 03:53:49;;;;;;;27.30;14.40;;;;;;;-6.97;100.00;101223.05;110349;1270;22204;-63
2023/02/10 03:56:17;;;;;;;25.00;13.40;;;;;;;-6.98;100.00;101223.70;110356;1275;22421;-62
2023/02/10 03:58:45;;;;;;;24.90;14.00;;;;;;;-7.00;100.00;101217.46;110355;1274;22466;-63
2023/02/10 04:01:16;;;;;;;26.10;14.00;;;;;;;-7.00;100.00;101215.02;110344;1274;22412;-63
2023/02/10 04:03:44;;;;;;;26.50;14.60;;;;;;;-7.00;100.00;101219.10;110338;1274;22431;-63
2023/02/10 04:06:13;;;;;;;25.70;14.00;;;;;;;-6.96;100.00;101220.02;109610;1272;25449;-62
2023/02/10 04:08:41;;;;;;;27.80;14.20;;;;;;;-6.89;100.00;101217.33;107717;1270;25377;-62
2023/02/10 04:11:29;;;;;;;;;;;;;;;-6.84;100.00;101213.30;106955;1272;25328;-62
2023/02/10 04:13:57;;;;;;;24.40;13.10;;;;;;;-6.84;100.00;101214.21;106825;1267;25363;-62
2023/02/10 04:16:27;;;;;;;28.10;15.30;;;;;;;-6.83;100.00;101214.19;107449;1269;25520;-62
2023/02/10 04:18:58;;;;;;;26.70;13.70;;;;;;;-6.78;100.00;101213.53;109409;1269;22768;-63
2023/02/10 04:21:26;;;;;;;23.90;12.60;;;;;;;-6.72;100.00;101215.88;110303;1274;22374;-63
2023/02/10 04:23:55;;;;;;;26.20;14.50;;;;;;;-6.67;100.00;101214.58;110329;1274;22263;-63
2023/02/10 04:26:24;;;;;;;24.40;13.20;;;;;;;-6.62;100.00;101212.19;110327;1274;23460;-63
2023/02/10 04:28:52;;;;;;;26.10;13.80;;;;;;;-6.59;100.00;101210.35;110350;1275;22508;-63
2023/02/10 04:31:20;;;;;;;26.30;13.10;;;;;;;-6.54;100.00;101211.92;110360;1273;22478;-63
2023/02/10 04:33:48;;;;;;;23.50;13.00;;;;;;;-6.53;100.00;101211.70;110312;1275;22290;-63
2023/02/10 04:36:17;;;;;;;27.20;13.70;;;;;;;-6.55;100.00;101212.15;110216;1274;144693;-63
2023/02/10 04:39:32;;;;;;;26.70;12.80;;;;;;;-6.54;100.00;101205.86;103602;1312;545163;-62
2023/02/10 04:42:00;;;;;;;24.60;13.00;;;;;;;-6.56;100.00;101210.17;105932;1282;25332;-61
2023/02/10 04:44:28;;;;;;;24.90;12.50;;;;;;;-6.59;100.00;101209.67;105917;1283;22648;-61
2023/02/10 04:46:57;;;;;;;22.80;11.50;;;;;;;-6.63;100.00;101212.45;109560;1286;23019;-63
2023/02/10 04:49:25;;;;;;;20.40;10.70;;;;;;;-6.68;100.00;101213.58;109619;1286;22518;-63
2023/02/10 04:51:53;;;;;;;19.50;11.10;;;;;;;-6.69;100.00;101211.77;109570;1286;23010;-63
2023/02/10 04:54:21;;;;;;;18.80;10.20;;;;;;;-6.65;100.00;101206.85;109571;1283;159829;-63
2023/02/10 04:56:50;;;;;;;20.30;10.50;;;;;;;-6.61;100.00;101213.91;109733;1284;22451;-63
2023/02/10 04:59:19;;;;;;;22.10;11.20;;;;;;;-6.58;100.00;101208.51;109736;1284;22444;-62
2023/02/10 05:01:47;;;;;;;20.90;10.50;;;;;;;-6.54;100.00;101204.89;109608;1284;22410;-62
2023/02/10 05:04:16;;;;;;;21.10;10.70;;;;;;;-6.51;100.00;101192.99;109662;1277;22851;-62
2023/02/10 05:06:46;;;;;;;21.60;9.90;;;;;;;-6.50;100.00;101193.56;109632;1284;23034;-62
2023/02/10 05:09:14;;;;;;;20.50;10.50;;;;;;;-6.48;100.00;101190.21;109764;1277;22389;-62
2023/02/10 05:11:43;;;;;;;18.40;9.70;;;;;;;-6.45;100.00;101191.23;109737;1284;22433;-62
2023/02/10 05:14:11;;;;;;;17.10;10.30;;;;;;;-6.43;100.00;101195.64;109647;1276;24628;-63
2023/02/10 05:16:40;;;;;;;21.40;10.20;;;;;;;-6.41;100.00;101193.02;109740;1284;23147;-62
2023/02/10 05:19:09;;;;;;;18.40;9.80;;;;;;;-6.47;100.00;101192.86;109839;1284;23127;-62
2023/02/10 05:21:38;;;;;;;21.20;10.80;;;;;;;-6.56;100.00;101200.77;109801;1284;23161;-63
2023/02/10 05:24:07;;;;;;;18.20;10.50;;;;;;;-6.65;100.00;101200.77;109680;1284;22460;-62
2023/02/10 05:26:35;;;;;;;17.60;9.40;;;;;;;-6.71;100.00;101196.54;109829;1284;22692;-63
2023/02/10 05:29:03;;;;;;;20.90;10.10;;;;;;;-6.80;100.00;101193.76;109818;1284;22267;-62
2023/02/10 05:31:32;;;;;;;18.20;9.80;;;;;;;-6.90;100.00;101191.23;109748;1282;22471;-63
2023/02/10 05:34:01;;;;;;;20.00;10.20;;;;;;;-6.99;100.00;101187.27;109724;1282;22395;-62
2023/02/10 05:36:30;;;;;;;19.50;10.50;;;;;;;-7.03;100.00;101189.70;106899;1277;26508;-62
2023/02/10 05:41:45;;;;;;;17.20;9.10;;;;;;;-7.04;100.00;101186.94;106303;1273;22799;-62
2023/02/10 05:44:13;;;;;;;18.60;9.60;;;;;;;-7.05;100.00;101182.03;106481;1272;22559;-61
2023/02/10 05:46:41;;;;;;;17.40;9.00;;;;;;;-7.05;100.00;101178.48;107310;1276;26750;-61
2023/02/10 05:49:11;;;;;;;19.10;9.40;;;;;;;-7.03;100.00;101180.34;106585;1279;26235;-62
2023/02/10 05:51:41;;;;;;;19.50;10.00;;;;;;;-7.04;100.00;101180.19;106522;1277;24474;-61
2023/02/10 05:54:09;;;;;;;19.20;9.60;;;;;;;-7.04;100.00;101187.26;106688;1273;25998;-62
2023/02/10 05:56:38;;;;;;;19.40;10.60;;;;;;;-6.99;100.00;101190.41;107805;1273;23782;-62
2023/02/10 05:59:06;;;;;;;19.50;10.50;;;;;;;-6.95;100.00;101191.13;106705;1276;23931;-61
2023/02/10 06:01:35;;;;;;;17.60;9.80;;;;;;;-6.89;100.00;101189.76;106811;1273;25328;-61
2023/02/10 06:04:04;;;;;;;26.20;11.30;;;;;;;-6.87;100.00;101182.00;107212;1273;23835;-64
2023/02/10 06:06:32;;;;;;;22.50;10.40;;;;;;;-6.89;100.00;101176.49;106740;1273;25343;-62
2023/02/10 06:09:00;;;;;;;19.90;10.50;;;;;;;-6.93;100.00;101173.14;106599;1273;24248;-61
2023/02/10 06:11:32;;;;;;;19.60;11.00;;;;;;;-6.94;100.00;101174.27;106700;1273;25318;-61
2023/02/10 06:14:00;;;;;;;19.60;11.30;;;;;;;-6.94;100.00;101171.10;109884;1279;23292;-62
2023/02/10 06:16:28;;;;;;;21.80;11.20;;;;;;;-6.92;100.00;101171.12;109936;1279;22928;-62
2023/02/10 06:18:57;;;;;;;22.20;10.90;;;;;;;-6.89;100.00;101167.16;109892;1274;22315;-62
2023/02/10 06:21:26;;;;;;;19.20;10.60;;;;;;;-6.84;100.00;101172.95;109945;1279;22982;-63
2023/02/10 06:23:55;;;;;;;20.10;10.30;;;;;;;-6.70;100.00;101168.54;109949;1280;22237;-62
2023/02/10 06:26:23;;;;;;;18.80;10.20;;;;;;;-6.46;100.00;101165.02;109921;1280;22418;-63
2023/02/10 06:28:51;;;;;;;22.40;11.40;;;;;;;-6.18;100.00;101163.31;109874;1272;22625;-62
2023/02/10 06:31:19;;;;;;;21.00;10.60;;;;;;;-5.90;100.00;101157.91;109960;1280;22316;-62
2023/02/10 06:33:47;;;;;;;21.40;10.70;;;;;;;-5.62;100.00;101156.45;109915;1275;22345;-63
2023/02/10 06:36:15;;;;;;;21.50;12.30;;;;;;;-5.36;100.00;101155.19;106829;1273;22615;-62
2023/02/10 06:38:44;;;;;;;21.30;11.90;;;;;;;-5.08;100.00;101155.48;107192;1274;25453;-62
2023/02/10 06:41:12;;;;;;;25.70;13.50;;;;;;;-4.74;100.00;101154.36;106558;1275;25237;-62
2023/02/10 06:43:42;;;;;;;22.80;13.80;;;;;;;-4.41;100.00;101150.22;106688;1274;22723;-62
2023/02/10 06:46:12;;;;;;;22.70;12.50;;;;;;;-4.10;100.00;101136.20;106665;1277;25338;-62
2023/02/10 06:48:41;;;;;;;22.70;13.30;;;;;;;-3.84;100.00;101128.37;106810;1279;22551;-63
2023/02/10 06:51:09;;;;;;;22.00;11.90;;;;;;;-3.61;100.00;101121.55;106225;1280;26664;-63
2023/02/10 06:53:37;;;;;;;20.80;12.70;;;;;;;-3.44;100.00;101120.84;106590;1257;22538;-63
2023/02/10 06:56:06;;;;;;;20.30;11.50;;;;;;;-3.34;100.00;101125.85;106478;1276;25344;-64
2023/02/10 06:58:35;;;;;;;21.10;11.60;;;;;;;-3.32;100.00;101125.98;107467;1280;25350;-63
2023/02/10 07:01:10;;;;;;;18.30;10.80;;;;;;;-3.31;100.00;101131.61;106703;1273;25481;-63
2023/02/10 07:03:38;;;;;;;21.40;12.70;;;;;;;-3.31;100.00;101127.13;110039;1280;22568;-64
2023/02/10 07:06:07;;;;;;;23.60;13.30;;;;;;;-3.34;100.00;101128.66;109977;1273;22944;-64
2023/02/10 07:08:35;;;;;;;20.70;11.50;;;;;;;-3.35;100.00;101119.75;110016;1280;22223;-64
2023/02/10 07:11:04;;;;;;;22.00;11.80;;;;;;;-3.34;100.00;101113.20;110025;1280;22431;-64
2023/02/10 07:13:32;;;;;;;21.00;11.30;;;;;;;-3.30;100.00;101104.70;110041;1280;22393;-64
2023/02/10 07:16:05;;;;;;;20.00;11.20;;;;;;;-3.28;100.00;101103.28;109971;1279;22254;-64
2023/02/10 07:18:36;;;;;;;19.70;11.50;;;;;;;-3.28;100.00;101097.73;109926;1278;22407;-64
2023/02/10 07:21:04;;;;;;;18.10;10.90;;;;;;;-3.29;100.00;101094.25;109983;1280;22404;-64
2023/02/10 07:23:33;;;;;;;18.40;10.80;;;;;;;-3.28;100.00;101094.86;109980;1275;22951;-64
2023/02/10 07:26:04;;;;;;;20.10;12.00;;;;;;;-3.23;100.00;101091.52;110001;1280;22672;-65
2023/02/10 07:28:34;;;;;;;19.00;11.40;;;;;;;-3.18;100.00;101077.00;110012;1280;22377;-63
2023/02/10 07:31:02;;;;;;;22.30;12.70;;;;;;;-3.09;100.00;101074.53;109948;1275;22444;-65
2023/02/10 07:33:31;;;;;;;22.00;12.00;;;;;;;-2.99;100.00;101080.85;110019;1280;22283;-64
2023/02/10 07:36:00;;;;;;;18.50;11.10;;;;;;;-2.89;100.00;101080.20;109934;1281;23122;-65
2023/02/10 07:38:29;;;;;;;18.60;11.00;;;;;;;-2.76;100.00;101068.92;110244;1277;22824;-64
2023/02/10 07:40:58;;;;;;;15.50;9.80;;;;;;;-2.58;100.00;101070.55;110251;1276;23045;-64
2023/02/10 07:43:26;;;;;;;19.00;10.80;;;;;;;-2.41;100.00;101074.04;110345;1276;22401;-64
2023/02/10 07:46:11;;;;;;;17.50;10.10;;;;;;;-2.26;100.00;101071.79;110276;1276;22205;-64
2023/02/10 07:48:39;;;;;;;18.60;10.70;;;;;;;-2.16;100.00;101073.62;110395;1276;22244;-64
2023/02/10 07:51:07;;;;;;;19.40;10.80;;;;;;;-2.07;100.00;101072.98;110351;1276;22831;-64
2023/02/10 07:53:37;;;;;;;20.70;11.50;;;;;;;-2.03;100.00;101070.62;110347;1276;23450;-64
2023/02/10 07:56:06;;;;;;;17.90;11.10;;;;;;;-2.02;100.00;101061.23;110347;1276;22418;-64
2023/02/10 07:58:35;;;;;;;18.80;10.70;;;;;;;-2.02;100.00;101053.48;110355;1276;23080;-64
2023/02/10 08:01:10;;;;;;;21.80;12.50;;;;;;;-2.06;100.00;101051.92;110374;1276;22391;-64
2023/02/10 08:03:38;;;;;;;21.60;12.00;;;;;;;-2.09;100.00;101056.48;110331;1276;22217;-64
2023/02/10 08:06:06;;;;;;;21.90;12.30;;;;;;;-2.10;100.00;101053.91;110403;1276;22391;-64
2023/02/10 08:08:35;;;;;;;20.60;12.90;;;;;;;-1.99;100.00;101052.14;110362;1276;22277;-65
2023/02/10 08:11:07;;;;;;;17.60;11.80;;;;;;;-1.80;100.00;101061.33;110335;1276;22339;-66
2023/02/10 08:13:35;;;;;;;23.30;13.30;;;;;;;-1.68;100.00;101065.72;110305;1273;22314;-63
2023/02/10 08:16:06;;;;;;;20.60;13.30;;;;;;;-1.60;100.00;101073.08;109582;1276;1002455;-64
2023/02/10 08:18:35;;;;;;;20.50;12.10;;;;;;;-1.42;100.00;101078.86;110403;1276;22215;-64
2023/02/10 08:21:04;;;;;;;24.50;12.30;;;;;;;-1.21;100.00;101073.73;110290;1269;23053;-64
2023/02/10 08:23:32;;;;;;;21.70;13.10;;;;;;;-0.97;100.00;101064.86;110257;1276;23195;-64
2023/02/10 08:26:09;;;;;;;23.50;13.10;;;;;;;-0.76;100.00;101063.06;110248;1276;22351;-64
2023/02/10 08:28:38;;;;;;;21.50;12.50;;;;;;;-0.53;100.00;101061.23;110316;1276;22239;-64
2023/02/10 08:31:07;;;;;;;20.20;12.80;;;;;;;-0.32;100.00;101065.02;110385;1271;22212;-64
2023/02/10 08:33:36;;;;;;;21.70;13.40;;;;;;;-0.10;100.00;101069.54;110181;1277;22270;-65
2023/02/10 08:36:15;;;;;;;17.80;11.30;;;;;;;0.04;100.00;101066.09;110280;1276;23084;-64
2023/02/10 08:38:43;;;;;;;20.40;12.50;;;;;;;0.20;100.00;101055.27;110342;1276;22414;-63
2023/02/10 08:41:12;;;;;;;19.20;11.50;;;;;;;0.32;100.00;101053.71;110285;1276;22312;-63
2023/02/10 08:43:41;;;;;;;16.60;11.30;;;;;;;0.30;100.00;101045.48;110388;1276;22280;-64
2023/02/10 08:46:09;;;;;;;20.90;12.10;;;;;;;0.30;100.00;101041.01;110270;1273;22412;-63
2023/02/10 08:48:38;;;;;;;18.90;12.40;;;;;;;0.38;100.00;101044.95;110303;1269;22213;-64
2023/02/10 08:51:10;;;;;;;18.20;11.20;;;;;;;0.43;100.00;101048.85;110350;1268;22345;-64
2023/02/10 08:53:38;;;;;;;17.70;11.80;;;;;;;0.45;100.00;101049.44;110357;1276;22405;-65
2023/02/10 08:56:08;;;;;;;18.50;11.50;;;;;;;0.41;100.00;101046.55;110306;1276;22427;-65
2023/02/10 08:58:38;;;;;;;18.70;11.90;;;;;;;0.42;100.00;101050.20;110373;1276;22336;-65
2023/02/10 09:01:14;;;;;;;18.80;11.30;;;;;;;0.38;100.00;101049.00;110332;1276;22573;-65
2023/02/10 09:03:42;;;;;;;18.80;11.60;;;;;;;0.48;100.00;101046.69;110381;1276;23105;-65
2023/02/10 09:06:15;;;;;;;16.90;10.30;;;;;;;0.63;100.00;101040.81;110360;1268;22266;-65
2023/02/10 09:08:45;;;;;;;17.20;10.50;;;;;;;0.63;100.00;101033.91;110387;1276;22421;-65
2023/02/10 09:11:15;;;;;;;17.80;11.20;;;;;;;0.51;100.00;101024.86;110360;1276;22219;-64
2023/02/10 09:13:44;;;;;;;17.70;11.10;;;;;;;0.47;100.00;101021.13;110363;1276;22341;-65
2023/02/10 09:16:12;;;;;;;19.40;12.20;;;;;;;0.52;100.00;101010.70;110304;1272;23192;-65
2023/02/10 09:18:43;;;;;;;19.50;12.30;;;;;;;0.57;100.00;101011.55;110247;1276;22431;-64
2023/02/10 09:21:11;;;;;;;19.00;12.00;;;;;;;0.64;100.00;101012.67;110200;1271;22252;-65
2023/02/10 09:23:39;;;;;;;15.80;10.50;;;;;;;0.75;100.00;101017.47;110277;1276;22516;-65
2023/02/10 09:26:08;;;;;;;17.90;11.20;;;;;;;0.78;100.00;101019.17;110256;1268;22288;-64
2023/02/10 09:28:36;;;;;;;17.80;10.80;;;;;;;0.76;100.00;101013.90;110211;1271;22275;-64
2023/02/10 09:31:06;;;;;;;17.60;10.90;;;;;;;0.74;100.00;101014.84;110259;1273;22352;-65
2023/02/10 09:33:35;;;;;;;16.00;10.90;;;;;;;0.73;100.00;101012.52;110274;1269;22277;-65
2023/02/10 09:36:05;;;;;;;19.50;11.50;;;;;;;0.66;100.00;101008.64;110332;1276;23354;-64
2023/02/10 09:38:33;;;;;;;21.30;11.60;;;;;;;0.59;100.00;101003.02;110366;1276;22958;-64
2023/02/10 09:41:20;;;;;;;21.40;12.50;;;;;;;0.66;100.00;100998.73;110338;1276;23202;-64
2023/02/10 09:44:07;;;;;;;21.40;12.10;;;;;;;0.78;100.00;100993.83;110134;1276;22255;-64
2023/02/10 09:47:13;;;;;;;15.90;10.70;;;;;;;0.84;100.00;100991.34;110357;1276;22356;-64
2023/02/10 09:50:12;;;;;;;18.10;12.00;;;;;;;0.91;100.00;100988.70;110357;1276;23264;-65
2023/02/10 09:52:53;;;;;;;16.60;10.40;;;;;;;0.92;100.00;100986.30;110349;1276;22350;-64
2023/02/10 09:55:45;;;;;;;18.40;10.80;;;;;;;0.93;100.00;100986.88;110316;1276;22220;-64
2023/02/10 09:58:35;;;;;;;17.80;11.40;;;;;;;0.99;100.00;100978.48;110107;1276;22316;-64
2023/02/10 10:01:10;;;;;;;17.00;10.80;;;;;;;1.00;100.00;100979.23;110117;1276;22390;-65
2023/02/10 10:04:06;;;;;;;18.60;10.80;;;;;;;0.98;100.00;100983.48;110140;1276;22385;-65
2023/02/10 10:06:39;;;;;;;17.10;11.30;;;;;;;0.97;100.00;100981.28;110206;1276;22283;-65
2023/02/10 10:09:08;;;;;;;21.10;13.30;;;;;;;1.03;100.00;100970.24;110176;1276;22337;-64
2023/02/10 10:11:45;;;;;;;17.50;10.40;;;;;;;1.07;100.00;100960.45;110341;1276;22490;-64
2023/02/10 10:14:18;;;;;;;16.50;11.30;;;;;;;1.11;100.00;100956.35;110167;1276;22344;-64
2023/02/10 10:16:59;;;;;;;19.00;12.00;;;;;;;1.17;100.00;100953.36;110114;1276;22414;-65
2023/02/10 10:19:43;;;;;;;16.30;11.10;;;;;;;1.27;100.00;100945.73;110304;1270;23126;-64
2023/02/10 10:22:11;;;;;;;19.70;12.50;;;;;;;1.34;100.00;100943.41;110363;1276;22286;-64
2023/02/10 10:24:58;;;;;;;17.90;11.40;;;;;;;1.37;100.00;100937.63;110376;1276;22254;-64
2023/02/10 10:27:55;;;;;;;16.30;10.80;;;;;;;1.44;100.00;100935.48;110358;1276;23193;-64
2023/02/10 10:30:39;;;;;;;18.20;10.30;;;;;;;1.49;100.00;100930.66;110153;1276;22375;-65
2023/02/10 10:33:39;;;;;;;17.10;11.30;;;;;;;1.48;100.00;100933.80;110392;1276;22163;-65
2023/02/10 10:36:15;;;;;;;16.60;10.70;;;;;;;1.46;100.00;100926.14;110173;1269;22353;-64
2023/02/10 10:38:53;;;;;;;16.10;10.80;;;;;;;1.48;100.00;100915.59;110342;1276;22233;-64
2023/02/10 10:41:25;;;;;;;17.40;10.70;;;;;;;1.51;100.00;100907.91;110382;1276;22307;-64
2023/02/10 10:43:54;;;;;;;15.80;10.30;;;;;;;1.60;100.00;100907.30;110259;1276;22252;-64
2023/02/10 10:46:49;;;;;;;16.20;10.30;;;;;;;1.73;100.00;100907.48;110380;1276;22201;-64
2023/02/10 10:49:18;;;;;;;17.20;10.90;;;;;;;1.86;100.00;100896.77;106769;1276;25370;-62
2023/02/10 10:51:47;;;;;;;16.10;10.60;;;;;;;1.92;100.00;100895.14;107155;1276;26490;-63
2023/02/10 10:54:18;;;;;;;16.30;11.00;;;;;;;1.96;100.00;100901.05;106567;1276;25343;-63
2023/02/10 10:56:51;;;;;;;19.70;11.90;;;;;;;1.96;100.00;100898.36;106703;1276;24318;-63
2023/02/10 10:59:45;;;;;;;17.10;10.40;;;;;;;1.99;100.00;100900.57;106543;1276;24065;-63
2023/02/10 11:02:18;;;;;;;16.30;10.50;;;;;;;1.99;100.00;100889.92;106811;1276;26271;-63
2023/02/10 11:05:00;;;;;;;17.20;10.80;;;;;;;2.03;100.00;100891.50;106725;1276;25460;-63
2023/02/10 11:07:31;;;;;;;16.10;9.80;;;;;;;2.07;100.00;100889.52;106697;1276;25498;-63
2023/02/10 11:10:00;;;;;;;13.80;9.60;;;;;;;2.09;100.00;100883.59;110371;1254;23227;-64
2023/02/10 11:12:33;;;;;;;17.60;10.30;;;;;;;2.17;100.00;100887.36;110386;1276;23288;-65
2023/02/10 11:15:05;;;;;;;16.90;11.00;;;;;;;2.27;100.00;100885.05;110212;1276;23051;-64
2023/02/10 11:17:39;;;;;;;15.70;10.40;;;;;;;2.30;100.00;100878.77;110130;1276;22959;-65
2023/02/10 11:20:13;;;;;;;16.00;9.60;;;;;;;2.32;100.00;100880.34;110389;1276;22405;-64
2023/02/10 11:22:42;;;;;;;15.80;9.50;;;;;;;2.33;100.00;100872.96;110380;1276;22433;-64